Terminal Aerodrome Forecast
Issued by NWS

Home | Current Version | Previous Version | Text Only | Print | Product List | Glossary On
Versions: 1 2 3 4 5 6 7 8 9 10 11 12
000
FTUS42 KMLB 230500 RRA
TAFTIX
TAF
KTIX 230552Z 2306/2406 11011G18KT P6SM -DZ OVC025
      TEMPO 2309/2312 5SM -RA BR
     FM231500 16014G21KT P6SM SCT025 BKN035
      TEMPO 2315/2318 BKN025
     FM231900 16016G23KT P6SM VCSH BKN035 BKN060
     FM240200 16008KT P6SM SCT035 BKN200
      AMD NOT SKED 2306/2312=

USA.gov is the U.S. government's official web portal to all federal, state and local government web resources and services.